• Join FlightAware (Why Join?)
  • Login
  • US Flag 
11:56AM EDT


 

Airport Tracker/Info


-or-


 

Live Flight TrackerFlight Track Log ✈ EJA982 ✈ 20-Jul-2013 ✈ KLAX - KSNA

Flight Track Log - Related Links

Times and Time Zones

All times are in EDT time to prevent confusion due to time zone crossing. See the EJA982 flight status page for this flight to view local times or setup timezone preferences in your user account.

Time Position Orientation Groundspeed Altitude Reporting Facility
EDT Latitude Longitude Course Direction KTS MPH feet Rate Location/Type
10:32AM 33.9333 -118.4667 121° Southeast 241 277 3,200  Level Southern California TRACON
10:33AM 33.8833 -118.5000 209° Southwest 225 259 4,800 900 Climbing Southern California TRACON
10:34AM 33.8167 -118.5167 192° South 227 261 5,100 120 Climbing Southern California TRACON
10:35AM 33.7500 -118.5167 180° South 219 252 5,100  Level Southern California TRACON
10:36AM 33.7000 -118.5000 165° South 225 259 5,100  Level Southern California TRACON
10:37AM 33.6833 -118.4333 107° East 210 242 5,100 -120 Level Southern California TRACON
10:38AM 33.7714 -118.0610 121° Southeast  Level Estimated
10:38AM 33.6811 -118.4072 96° East 209 241 5,000  Level Los Angeles Center
10:39AM 33.6644 -118.3261 104° East 212 244 5,000  Level Los Angeles Center
10:40AM 33.6500 -118.2581 104° East 213 245 5,000  Level Los Angeles Center
10:41AM 33.6356 -118.1875 104° East 217 250 5,000  Level Los Angeles Center
10:42AM 33.6500 -118.0833 81° East 222 255 5,000  Level Southern California TRACON
10:43AM 33.6667 -118.0167 73° East 218 251 5,000  Level Southern California TRACON
10:44AM 33.7167 -117.9667 40° Northeast 216 249 5,000 -300 Level Southern California TRACON
10:45AM 33.7500 -117.9167 51° Northeast 220 253 4,500 -960 Descending Southern California TRACON
10:46AM 33.8000 -117.8667 40° Northeast 221 254 3,100 -780 Descending Southern California TRACON
10:47AM 33.8500 -117.8167 40° Northeast 210 242 3,000 -60 Descending Southern California TRACON
10:48AM 33.8167 -117.7833 140° Southeast 183 211 3,000 -360 Level Southern California TRACON
10:49AM 33.7833 -117.8000 203° Southwest 144 166 2,300 -720 Descending Southern California TRACON
10:50AM 33.7500 -117.8167 203° Southwest 133 153 1,600 -720 Descending Southern California TRACON
10:51AM 33.7167 -117.8500 220° Southwest 129 148 900 -660 Descending Southern California TRACON
10:52AM 33.6833 -117.8667 203° Southwest 121 139 300 -600 Descending Southern California TRACON